Terminal Aerodrome Forecast
Issued by NWS Des Moines, IA

Home | Current Version | Previous Version | Text Only | Print | Product List | Glossary On
Versions: 1 2 3 4 5 6 7 8 9 10 11 12 13 14 15 16 17 18 19 20 21 22 23 24 25 26 27 28 29 30 31 32 33 34 35 36 37 38 39 40 41
741
FTUS43 KDMX 060303 AAA
TAFALO
TAF AMD
KALO 060303Z 0603/0624 18008KT P6SM OVC025
     FM061000 21005KT 2SM BR BKN007
      TEMPO 0612/0614 1SM BR
     FM061600 25006KT P6SM SCT020
     FM061900 21010KT P6SM BKN120=

USA.gov is the U.S. government's official web portal to all federal, state and local government web resources and services.